sensor_id;sensor_type;location;lat;lon;timestamp;P1;durP1;ratioP1;P2;durP2;ratioP2
25319;SDS011;13256;49.012;8.610;2023-03-31T00:00:58;9.68;;;1.85;;
25319;SDS011;13256;49.012;8.610;2023-03-31T00:03:32;5.80;;;2.00;;
25319;SDS011;13256;49.012;8.610;2023-03-31T00:06:04;6.10;;;2.22;;
25319;SDS011;13256;49.012;8.610;2023-03-31T00:08:32;9.15;;;1.70;;
25319;SDS011;13256;49.012;8.610;2023-03-31T00:11:06;8.13;;;2.20;;
25319;SDS011;13256;49.012;8.610;2023-03-31T00:13:37;7.95;;;1.70;;
25319;SDS011;13256;49.012;8.610;2023-03-31T00:16:08;5.72;;;1.45;;
25319;SDS011;13256;49.012;8.610;2023-03-31T00:18:44;5.60;;;1.65;;
25319;SDS011;13256;49.012;8.610;2023-03-31T00:21:13;3.75;;;1.50;;
25319;SDS011;13256;49.012;8.610;2023-03-31T00:23:59;6.00;;;1.80;;
25319;SDS011;13256;49.012;8.610;2023-03-31T00:26:29;7.22;;;2.65;;
25319;SDS011;13256;49.012;8.610;2023-03-31T00:28:57;6.47;;;1.95;;
25319;SDS011;13256;49.012;8.610;2023-03-31T00:31:26;6.40;;;2.10;;
25319;SDS011;13256;49.012;8.610;2023-03-31T00:33:54;5.30;;;1.88;;
25319;SDS011;13256;49.012;8.610;2023-03-31T00:36:30;7.53;;;2.05;;
25319;SDS011;13256;49.012;8.610;2023-03-31T00:39:00;6.18;;;1.95;;
25319;SDS011;13256;49.012;8.610;2023-03-31T00:41:37;7.30;;;2.22;;
25319;SDS011;13256;49.012;8.610;2023-03-31T00:46:55;6.60;;;1.83;;
25319;SDS011;13256;49.012;8.610;2023-03-31T00:49:44;4.85;;;1.90;;
25319;SDS011;13256;49.012;8.610;2023-03-31T00:52:23;4.10;;;1.80;;
25319;SDS011;13256;49.012;8.610;2023-03-31T00:55:06;5.53;;;1.45;;
25319;SDS011;13256;49.012;8.610;2023-03-31T00:57:38;6.50;;;1.55;;
25319;SDS011;13256;49.012;8.610;2023-03-31T01:00:09;4.43;;;1.40;;
25319;SDS011;13256;49.012;8.610;2023-03-31T01:02:48;7.20;;;1.25;;
25319;SDS011;13256;49.012;8.610;2023-03-31T01:08:26;2.30;;;1.38;;
25319;SDS011;13256;49.012;8.610;2023-03-31T01:17:11;6.32;;;1.40;;
25319;SDS011;13256;49.012;8.610;2023-03-31T01:23:07;5.30;;;0.90;;
25319;SDS011;13256;49.012;8.610;2023-03-31T01:43:22;2.05;;;0.88;;
25319;SDS011;13256;49.012;8.610;2023-03-31T02:00:14;4.45;;;1.10;;
25319;SDS011;13256;49.012;8.610;2023-03-31T02:05:45;4.57;;;1.25;;
25319;SDS011;13256;49.012;8.610;2023-03-31T02:08:41;6.63;;;1.63;;
25319;SDS011;13256;49.012;8.610;2023-03-31T02:11:14;5.88;;;1.30;;
25319;SDS011;13256;49.012;8.610;2023-03-31T02:13:43;8.95;;;1.67;;
25319;SDS011;13256;49.012;8.610;2023-03-31T02:16:15;3.55;;;1.33;;
25319;SDS011;13256;49.012;8.610;2023-03-31T02:18:51;8.68;;;1.55;;
25319;SDS011;13256;49.012;8.610;2023-03-31T02:21:33;4.18;;;1.58;;
25319;SDS011;13256;49.012;8.610;2023-03-31T02:24:06;6.47;;;1.30;;
25319;SDS011;13256;49.012;8.610;2023-03-31T02:26:48;4.95;;;1.52;;
25319;SDS011;13256;49.012;8.610;2023-03-31T02:29:21;3.30;;;1.38;;
25319;SDS011;13256;49.012;8.610;2023-03-31T02:31:55;4.85;;;1.42;;
25319;SDS011;13256;49.012;8.610;2023-03-31T02:34:24;9.90;;;1.55;;
25319;SDS011;13256;49.012;8.610;2023-03-31T02:36:52;3.88;;;1.70;;
25319;SDS011;13256;49.012;8.610;2023-03-31T02:39:24;7.30;;;1.40;;
25319;SDS011;13256;49.012;8.610;2023-03-31T02:41:55;5.22;;;1.48;;
25319;SDS011;13256;49.012;8.610;2023-03-31T02:44:23;4.82;;;1.30;;
25319;SDS011;13256;49.012;8.610;2023-03-31T02:49:49;3.85;;;1.20;;
25319;SDS011;13256;49.012;8.610;2023-03-31T03:19:09;2.40;;;1.55;;
25319;SDS011;13256;49.012;8.610;2023-03-31T03:21:47;9.00;;;1.77;;
25319;SDS011;13256;49.012;8.610;2023-03-31T03:24:26;6.50;;;1.63;;
25319;SDS011;13256;49.012;8.610;2023-03-31T03:26:55;7.70;;;1.80;;
25319;SDS011;13256;49.012;8.610;2023-03-31T03:29:29;6.03;;;1.70;;
25319;SDS011;13256;49.012;8.610;2023-03-31T03:31:58;2.85;;;1.42;;
25319;SDS011;13256;49.012;8.610;2023-03-31T03:34:27;2.95;;;1.67;;
25319;SDS011;13256;49.012;8.610;2023-03-31T03:36:57;8.00;;;1.70;;
25319;SDS011;13256;49.012;8.610;2023-03-31T03:39:27;6.72;;;1.80;;
25319;SDS011;13256;49.012;8.610;2023-03-31T03:41:55;5.40;;;1.60;;
25319;SDS011;13256;49.012;8.610;2023-03-31T03:44:27;3.20;;;1.67;;
25319;SDS011;13256;49.012;8.610;2023-03-31T03:46:57;4.40;;;1.30;;
25319;SDS011;13256;49.012;8.610;2023-03-31T03:49:25;3.92;;;1.50;;
25319;SDS011;13256;49.012;8.610;2023-03-31T03:51:53;2.85;;;1.55;;
25319;SDS011;13256;49.012;8.610;2023-03-31T03:54:23;4.40;;;1.70;;
25319;SDS011;13256;49.012;8.610;2023-03-31T04:02:43;3.92;;;1.42;;
25319;SDS011;13256;49.012;8.610;2023-03-31T04:05:11;7.05;;;1.80;;
25319;SDS011;13256;49.012;8.610;2023-03-31T04:07:43;6.35;;;1.65;;
25319;SDS011;13256;49.012;8.610;2023-03-31T04:10:11;3.85;;;1.50;;
25319;SDS011;13256;49.012;8.610;2023-03-31T04:12:39;3.58;;;1.67;;
25319;SDS011;13256;49.012;8.610;2023-03-31T04:15:10;5.70;;;1.50;;
25319;SDS011;13256;49.012;8.610;2023-03-31T04:17:41;6.03;;;1.70;;
25319;SDS011;13256;49.012;8.610;2023-03-31T04:20:20;7.05;;;1.80;;
25319;SDS011;13256;49.012;8.610;2023-03-31T04:22:56;4.05;;;2.35;;
25319;SDS011;13256;49.012;8.610;2023-03-31T04:25:28;6.43;;;2.80;;
25319;SDS011;13256;49.012;8.610;2023-03-31T04:27:57;7.13;;;2.38;;
25319;SDS011;13256;49.012;8.610;2023-03-31T04:30:26;7.43;;;3.85;;
25319;SDS011;13256;49.012;8.610;2023-03-31T04:33:22;9.95;;;2.80;;
25319;SDS011;13256;49.012;8.610;2023-03-31T04:35:56;4.30;;;1.60;;
25319;SDS011;13256;49.012;8.610;2023-03-31T04:38:24;7.63;;;2.08;;
25319;SDS011;13256;49.012;8.610;2023-03-31T04:40:59;5.55;;;2.30;;
25319;SDS011;13256;49.012;8.610;2023-03-31T04:43:30;4.55;;;2.10;;
25319;SDS011;13256;49.012;8.610;2023-03-31T05:04:10;3.63;;;1.80;;
25319;SDS011;13256;49.012;8.610;2023-03-31T05:09:49;5.07;;;2.13;;
25319;SDS011;13256;49.012;8.610;2023-03-31T05:30:30;7.05;;;3.78;;
25319;SDS011;13256;49.012;8.610;2023-03-31T05:44:16;4.35;;;2.85;;
25319;SDS011;13256;49.012;8.610;2023-03-31T05:47:03;13.25;;;3.70;;
25319;SDS011;13256;49.012;8.610;2023-03-31T05:58:26;15.27;;;5.70;;
25319;SDS011;13256;49.012;8.610;2023-03-31T06:02:06;7.82;;;3.55;;
25319;SDS011;13256;49.012;8.610;2023-03-31T06:04:53;14.45;;;4.43;;
25319;SDS011;13256;49.012;8.610;2023-03-31T06:08:48;7.70;;;3.58;;
25319;SDS011;13256;49.012;8.610;2023-03-31T06:11:56;8.05;;;3.53;;
25319;SDS011;13256;49.012;8.610;2023-03-31T06:19:34;12.18;;;3.97;;
25319;SDS011;13256;49.012;8.610;2023-03-31T06:22:56;9.65;;;4.70;;
25319;SDS011;13256;49.012;8.610;2023-03-31T06:40:14;9.88;;;3.75;;
25319;SDS011;13256;49.012;8.610;2023-03-31T08:39:26;7.90;;;1.55;;
25319;SDS011;13256;49.012;8.610;2023-03-31T08:44:46;7.88;;;1.58;;
25319;SDS011;13256;49.012;8.610;2023-03-31T08:59:37;3.47;;;0.90;;
25319;SDS011;13256;49.012;8.610;2023-03-31T09:22:40;9.07;;;1.13;;
25319;SDS011;13256;49.012;8.610;2023-03-31T10:04:24;4.38;;;1.23;;
25319;SDS011;13256;49.012;8.610;2023-03-31T10:24:16;5.22;;;1.30;;
25319;SDS011;13256;49.012;8.610;2023-03-31T10:26:56;2.97;;;1.20;;
25319;SDS011;13256;49.012;8.610;2023-03-31T10:52:20;7.07;;;1.20;;
25319;SDS011;13256;49.012;8.610;2023-03-31T10:55:25;4.65;;;1.10;;
25319;SDS011;13256;49.012;8.610;2023-03-31T10:58:05;2.85;;;0.98;;
25319;SDS011;13256;49.012;8.610;2023-03-31T11:00:56;4.80;;;1.38;;
25319;SDS011;13256;49.012;8.610;2023-03-31T11:12:16;3.20;;;1.23;;
25319;SDS011;13256;49.012;8.610;2023-03-31T12:46:43;4.82;;;0.93;;
25319;SDS011;13256;49.012;8.610;2023-03-31T13:27:34;2.47;;;0.60;;
25319;SDS011;13256;49.012;8.610;2023-03-31T15:26:13;0.85;;;0.52;;
25319;SDS011;13256;49.012;8.610;2023-03-31T15:47:51;4.90;;;1.02;;
25319;SDS011;13256;49.012;8.610;2023-03-31T16:07:54;3.33;;;0.85;;
25319;SDS011;13256;49.012;8.610;2023-03-31T16:32:12;5.15;;;0.90;;
25319;SDS011;13256;49.012;8.610;2023-03-31T16:34:57;4.22;;;1.30;;
25319;SDS011;13256;49.012;8.610;2023-03-31T16:52:37;8.18;;;1.55;;
25319;SDS011;13256;49.012;8.610;2023-03-31T17:43:50;4.68;;;1.70;;
25319;SDS011;13256;49.012;8.610;2023-03-31T18:16:18;5.72;;;2.25;;
25319;SDS011;13256;49.012;8.610;2023-03-31T18:46:08;6.82;;;2.80;;
25319;SDS011;13256;49.012;8.610;2023-03-31T19:03:06;12.10;;;4.53;;
25319;SDS011;13256;49.012;8.610;2023-03-31T19:11:33;3.50;;;1.15;;
25319;SDS011;13256;49.012;8.610;2023-03-31T19:28:56;1.83;;;1.10;;
25319;SDS011;13256;49.012;8.610;2023-03-31T19:37:35;3.50;;;1.17;;
25319;SDS011;13256;49.012;8.610;2023-03-31T19:43:15;3.90;;;0.88;;
25319;SDS011;13256;49.012;8.610;2023-03-31T19:52:08;5.18;;;0.80;;
25319;SDS011;13256;49.012;8.610;2023-03-31T20:06:32;4.15;;;1.20;;
25319;SDS011;13256;49.012;8.610;2023-03-31T20:14:47;3.20;;;1.00;;
25319;SDS011;13256;49.012;8.610;2023-03-31T20:29:21;3.17;;;0.98;;
25319;SDS011;13256;49.012;8.610;2023-03-31T20:49:38;4.45;;;1.45;;
25319;SDS011;13256;49.012;8.610;2023-03-31T21:01:02;2.60;;;0.90;;
25319;SDS011;13256;49.012;8.610;2023-03-31T21:12:38;3.63;;;1.00;;
25319;SDS011;13256;49.012;8.610;2023-03-31T21:15:19;4.38;;;1.08;;
25319;SDS011;13256;49.012;8.610;2023-03-31T21:17:47;5.00;;;1.23;;
25319;SDS011;13256;49.012;8.610;2023-03-31T21:20:15;1.85;;;0.70;;
25319;SDS011;13256;49.012;8.610;2023-03-31T21:22:42;2.05;;;0.70;;
25319;SDS011;13256;49.012;8.610;2023-03-31T21:25:15;5.18;;;1.02;;
25319;SDS011;13256;49.012;8.610;2023-03-31T21:27:43;1.60;;;0.68;;
25319;SDS011;13256;49.012;8.610;2023-03-31T21:30:10;3.47;;;1.08;;
25319;SDS011;13256;49.012;8.610;2023-03-31T21:33:27;0.85;;;0.43;;
25319;SDS011;13256;49.012;8.610;2023-03-31T21:36:04;4.75;;;0.52;;
25319;SDS011;13256;49.012;8.610;2023-03-31T21:38:33;1.88;;;0.93;;
25319;SDS011;13256;49.012;8.610;2023-03-31T21:41:12;2.17;;;0.52;;
25319;SDS011;13256;49.012;8.610;2023-03-31T21:43:47;7.22;;;0.88;;
25319;SDS011;13256;49.012;8.610;2023-03-31T21:46:17;0.30;;;0.30;;
25319;SDS011;13256;49.012;8.610;2023-03-31T21:48:46;3.85;;;0.85;;
25319;SDS011;13256;49.012;8.610;2023-03-31T21:51:17;2.00;;;0.47;;
25319;SDS011;13256;49.012;8.610;2023-03-31T21:53:51;0.55;;;0.47;;
25319;SDS011;13256;49.012;8.610;2023-03-31T21:56:49;2.28;;;0.85;;
25319;SDS011;13256;49.012;8.610;2023-03-31T21:59:16;1.05;;;0.60;;
25319;SDS011;13256;49.012;8.610;2023-03-31T22:01:52;1.25;;;0.57;;
25319;SDS011;13256;49.012;8.610;2023-03-31T22:04:24;1.23;;;0.50;;
25319;SDS011;13256;49.012;8.610;2023-03-31T22:06:51;0.50;;;0.50;;
25319;SDS011;13256;49.012;8.610;2023-03-31T22:09:20;2.45;;;0.40;;
25319;SDS011;13256;49.012;8.610;2023-03-31T22:11:48;1.55;;;0.60;;
25319;SDS011;13256;49.012;8.610;2023-03-31T22:14:17;0.77;;;0.38;;
25319;SDS011;13256;49.012;8.610;2023-03-31T22:17:08;3.50;;;0.65;;
25319;SDS011;13256;49.012;8.610;2023-03-31T22:19:35;1.20;;;0.38;;
25319;SDS011;13256;49.012;8.610;2023-03-31T22:22:07;3.33;;;0.50;;
25319;SDS011;13256;49.012;8.610;2023-03-31T22:24:34;1.02;;;0.40;;
25319;SDS011;13256;49.012;8.610;2023-03-31T22:27:01;1.42;;;0.60;;
25319;SDS011;13256;49.012;8.610;2023-03-31T22:29:31;2.67;;;0.68;;
25319;SDS011;13256;49.012;8.610;2023-03-31T22:31:59;3.92;;;0.68;;
25319;SDS011;13256;49.012;8.610;2023-03-31T22:34:31;5.18;;;0.70;;
25319;SDS011;13256;49.012;8.610;2023-03-31T22:37:00;1.13;;;0.50;;
25319;SDS011;13256;49.012;8.610;2023-03-31T22:48:29;3.47;;;0.73;;
25319;SDS011;13256;49.012;8.610;2023-03-31T22:51:00;1.75;;;0.52;;
25319;SDS011;13256;49.012;8.610;2023-03-31T23:08:24;1.35;;;0.55;;
25319;SDS011;13256;49.012;8.610;2023-03-31T23:10:57;0.73;;;0.50;;
25319;SDS011;13256;49.012;8.610;2023-03-31T23:13:27;1.40;;;0.50;;
25319;SDS011;13256;49.012;8.610;2023-03-31T23:15:54;2.10;;;0.50;;
25319;SDS011;13256;49.012;8.610;2023-03-31T23:18:25;4.22;;;0.70;;
25319;SDS011;13256;49.012;8.610;2023-03-31T23:20:54;1.40;;;0.50;;
25319;SDS011;13256;49.012;8.610;2023-03-31T23:23:22;3.17;;;0.80;;
25319;SDS011;13256;49.012;8.610;2023-03-31T23:25:53;0.70;;;0.50;;
25319;SDS011;13256;49.012;8.610;2023-03-31T23:28:22;0.80;;;0.60;;
25319;SDS011;13256;49.012;8.610;2023-03-31T23:30:52;2.17;;;0.90;;
25319;SDS011;13256;49.012;8.610;2023-03-31T23:33:23;0.73;;;0.52;;
25319;SDS011;13256;49.012;8.610;2023-03-31T23:35:50;0.50;;;0.40;;
25319;SDS011;13256;49.012;8.610;2023-03-31T23:38:20;2.22;;;0.68;;
25319;SDS011;13256;49.012;8.610;2023-03-31T23:40:46;2.20;;;0.63;;
25319;SDS011;13256;49.012;8.610;2023-03-31T23:43:16;0.40;;;0.30;;
25319;SDS011;13256;49.012;8.610;2023-03-31T23:45:45;2.53;;;0.57;;
25319;SDS011;13256;49.012;8.610;2023-03-31T23:48:12;4.43;;;0.55;;
25319;SDS011;13256;49.012;8.610;2023-03-31T23:50:41;1.88;;;0.60;;
25319;SDS011;13256;49.012;8.610;2023-03-31T23:53:10;3.80;;;0.98;;
25319;SDS011;13256;49.012;8.610;2023-03-31T23:55:38;1.88;;;0.40;;
25319;SDS011;13256;49.012;8.610;2023-03-31T23:58:07;1.92;;;0.50;;
